createdAt,value
2016-12-26T00:00:01.251Z,0
2016-12-26T00:01:11.994Z,0
2016-12-26T00:02:22.782Z,0
2016-12-26T00:03:33.540Z,0
2016-12-26T00:04:44.299Z,0
2016-12-26T00:05:55.031Z,0
2016-12-26T00:07:05.774Z,0
2016-12-26T00:08:16.523Z,0
2016-12-26T00:09:27.560Z,0
2016-12-26T00:10:38.287Z,0
2016-12-26T00:11:49.009Z,0
2016-12-26T00:12:59.704Z,0
2016-12-26T00:14:10.429Z,0
2016-12-26T00:15:21.172Z,0
2016-12-26T00:16:31.892Z,0
2016-12-26T00:17:42.617Z,0
2016-12-26T00:18:53.338Z,0
2016-12-26T00:20:04.058Z,0
2016-12-26T00:21:15.105Z,0
2016-12-26T00:22:25.849Z,0
2016-12-26T00:23:36.596Z,0
2016-12-26T00:24:47.317Z,0
2016-12-26T00:25:58.060Z,0
2016-12-26T00:27:08.784Z,0
2016-12-26T00:28:19.505Z,0
2016-12-26T00:29:30.252Z,0
2016-12-26T00:30:40.990Z,0
2016-12-26T00:31:51.717Z,0
2016-12-26T00:33:02.414Z,0
2016-12-26T00:34:13.161Z,0
2016-12-26T00:35:23.905Z,0
2016-12-26T00:36:34.641Z,0
2016-12-26T00:37:45.370Z,0
2016-12-26T00:38:56.099Z,0
2016-12-26T00:40:06.841Z,0
2016-12-26T00:41:17.587Z,0
2016-12-26T00:42:28.308Z,0
2016-12-26T00:43:39.068Z,0
2016-12-26T00:44:49.800Z,0
2016-12-26T00:46:00.546Z,0
2016-12-26T00:47:11.266Z,0
2016-12-26T00:48:22.337Z,0
2016-12-26T00:49:33.063Z,0
2016-12-26T00:50:43.800Z,0
2016-12-26T00:51:54.526Z,0
2016-12-26T00:53:05.272Z,0
2016-12-26T00:54:16.017Z,0
2016-12-26T00:55:26.765Z,0
2016-12-26T00:56:37.484Z,0
2016-12-26T00:57:48.184Z,0
2016-12-26T00:58:58.901Z,0
2016-12-26T01:00:09.645Z,0
2016-12-26T01:01:20.390Z,0
2016-12-26T01:02:31.086Z,0
2016-12-26T01:03:41.806Z,0
2016-12-26T01:04:52.532Z,0
2016-12-26T01:06:03.274Z,0
2016-12-26T01:07:13.971Z,0
2016-12-26T01:08:24.691Z,0
2016-12-26T01:09:35.441Z,0
2016-12-26T01:10:46.183Z,0
2016-12-26T01:11:56.909Z,0
2016-12-26T01:13:07.650Z,0
2016-12-26T01:14:18.671Z,0
2016-12-26T01:15:29.421Z,0
2016-12-26T01:16:40.166Z,0
2016-12-26T01:17:50.901Z,0
2016-12-26T01:19:01.638Z,0
2016-12-26T01:20:12.397Z,0
2016-12-26T01:21:23.127Z,0
2016-12-26T01:22:33.872Z,0
2016-12-26T01:23:44.614Z,0
2016-12-26T01:24:55.339Z,0
2016-12-26T01:26:06.080Z,0
2016-12-26T01:27:16.806Z,0
2016-12-26T01:28:27.552Z,0
2016-12-26T01:29:38.294Z,0
2016-12-26T01:30:49.040Z,0
2016-12-26T01:31:59.738Z,0
2016-12-26T01:33:10.486Z,0
2016-12-26T01:34:21.224Z,0
2016-12-26T01:35:31.953Z,0
2016-12-26T01:36:42.699Z,0
2016-12-26T01:37:53.433Z,0
2016-12-26T01:39:04.143Z,0
2016-12-26T01:40:14.889Z,0
2016-12-26T01:41:25.646Z,0
2016-12-26T01:42:36.377Z,0
2016-12-26T01:43:47.424Z,0
2016-12-26T01:44:58.173Z,0
2016-12-26T01:46:08.941Z,0
2016-12-26T01:47:19.694Z,0
2016-12-26T01:48:30.450Z,0
2016-12-26T01:49:41.153Z,0
2016-12-26T01:50:51.897Z,0
2016-12-26T01:52:02.623Z,0
2016-12-26T01:53:13.347Z,0
2016-12-26T01:54:24.064Z,0
2016-12-26T01:55:34.834Z,0
2016-12-26T01:56:45.584Z,0
2016-12-26T01:57:56.322Z,0
2016-12-26T01:59:07.020Z,0
2016-12-26T02:00:17.741Z,0
2016-12-26T02:01:28.488Z,0
2016-12-26T02:02:39.234Z,0
2016-12-26T02:03:49.960Z,0
2016-12-26T02:05:00.701Z,0
2016-12-26T02:06:11.444Z,0
2016-12-26T02:07:22.194Z,0
2016-12-26T02:08:32.911Z,0
2016-12-26T02:09:43.650Z,0
2016-12-26T02:10:54.681Z,0
2016-12-26T02:12:05.417Z,0
2016-12-26T02:13:16.151Z,0
2016-12-26T02:14:26.898Z,0
2016-12-26T02:15:37.630Z,0
2016-12-26T02:16:48.350Z,0
2016-12-26T02:17:59.082Z,0
2016-12-26T02:19:09.844Z,0
2016-12-26T02:20:20.597Z,0
2016-12-26T02:21:31.334Z,0
2016-12-26T02:22:42.063Z,0
2016-12-26T02:23:52.803Z,0
2016-12-26T02:25:03.513Z,0
2016-12-26T02:26:14.280Z,0
2016-12-26T02:27:25.021Z,0
2016-12-26T02:28:35.719Z,0
2016-12-26T02:29:46.484Z,0
2016-12-26T02:30:57.185Z,0
2016-12-26T02:32:07.906Z,0
2016-12-26T02:33:18.629Z,0
2016-12-26T02:34:29.374Z,0
2016-12-26T02:35:40.095Z,0
2016-12-26T02:36:50.838Z,0
2016-12-26T02:38:01.534Z,0
2016-12-26T02:39:12.240Z,0
2016-12-26T02:40:22.955Z,0
2016-12-26T02:41:33.725Z,0
2016-12-26T02:42:44.471Z,0
2016-12-26T02:43:55.193Z,0
2016-12-26T02:45:05.968Z,0
2016-12-26T02:46:16.730Z,0
2016-12-26T02:47:27.469Z,0
2016-12-26T02:48:38.201Z,0
2016-12-26T02:49:48.918Z,0
2016-12-26T02:50:59.641Z,0
2016-12-26T02:52:10.665Z,0
2016-12-26T02:53:21.405Z,0
2016-12-26T02:54:32.129Z,0
2016-12-26T02:55:42.872Z,0
2016-12-26T02:56:53.571Z,0
2016-12-26T02:58:04.618Z,0
2016-12-26T02:59:15.363Z,0
2016-12-26T03:00:26.130Z,0
2016-12-26T03:01:36.883Z,0
2016-12-26T03:02:47.607Z,0
2016-12-26T03:03:58.353Z,0
2016-12-26T03:05:09.071Z,0
2016-12-26T03:06:19.802Z,0
2016-12-26T03:07:30.511Z,0
2016-12-26T03:08:41.255Z,0
2016-12-26T03:09:51.969Z,0
2016-12-26T03:11:02.688Z,0
2016-12-26T03:12:13.423Z,0
2016-12-26T03:13:24.168Z,0
2016-12-26T03:14:34.886Z,0
2016-12-26T03:15:45.632Z,0
2016-12-26T03:16:56.370Z,0
2016-12-26T03:18:07.088Z,0
2016-12-26T03:19:17.811Z,0
2016-12-26T03:20:28.838Z,0
2016-12-26T03:21:39.562Z,0
2016-12-26T03:22:50.307Z,0
2016-12-26T03:24:01.068Z,0
2016-12-26T03:25:11.799Z,0
2016-12-26T03:26:22.492Z,0
2016-12-26T03:27:33.217Z,0
2016-12-26T03:28:43.951Z,0
2016-12-26T03:29:54.683Z,0
2016-12-26T03:31:05.419Z,0
2016-12-26T03:32:16.125Z,0
2016-12-26T03:33:26.869Z,0
2016-12-26T03:34:37.617Z,0
2016-12-26T03:35:48.330Z,0
2016-12-26T03:36:59.076Z,0
2016-12-26T03:38:09.805Z,0
2016-12-26T03:39:20.548Z,0
2016-12-26T03:40:31.294Z,0
2016-12-26T03:41:42.024Z,0
2016-12-26T03:42:52.767Z,0
2016-12-26T03:44:03.511Z,0
2016-12-26T03:45:14.259Z,0
2016-12-26T03:46:25.024Z,0
2016-12-26T03:47:35.737Z,0
2016-12-26T03:48:46.470Z,0
2016-12-26T03:49:57.217Z,0
2016-12-26T03:51:07.962Z,0
2016-12-26T03:52:18.683Z,0
2016-12-26T03:53:29.428Z,0
2016-12-26T03:54:40.188Z,0
2016-12-26T03:55:50.898Z,0
2016-12-26T03:57:01.614Z,0
2016-12-26T03:58:12.335Z,0
2016-12-26T03:59:23.056Z,0
2016-12-26T04:00:33.780Z,0
2016-12-26T04:01:44.824Z,0
2016-12-26T04:02:55.549Z,0
2016-12-26T04:04:06.294Z,0
2016-12-26T04:05:17.040Z,0
2016-12-26T04:06:27.757Z,0
2016-12-26T04:07:38.513Z,0
2016-12-26T04:08:49.232Z,0
2016-12-26T04:09:59.973Z,0
2016-12-26T04:11:10.716Z,0
2016-12-26T04:12:21.430Z,0
2016-12-26T04:13:32.155Z,0
2016-12-26T04:14:42.859Z,0
2016-12-26T04:15:53.586Z,0
2016-12-26T04:17:04.626Z,0
2016-12-26T04:18:15.351Z,0
2016-12-26T04:19:26.066Z,0
2016-12-26T04:20:36.787Z,0
2016-12-26T04:21:47.510Z,0
2016-12-26T04:22:58.233Z,0
2016-12-26T04:24:09.276Z,0
2016-12-26T04:25:20.036Z,0
2016-12-26T04:26:30.769Z,0
2016-12-26T04:27:41.518Z,0
2016-12-26T04:28:52.249Z,0
2016-12-26T04:30:02.978Z,0
2016-12-26T04:31:13.703Z,0
2016-12-26T04:32:24.421Z,0
2016-12-26T04:33:35.170Z,0
2016-12-26T04:34:46.258Z,0
2016-12-26T04:35:56.986Z,0
2016-12-26T04:37:07.710Z,0
2016-12-26T04:38:18.456Z,0
2016-12-26T04:39:29.202Z,0
2016-12-26T04:40:39.942Z,0
2016-12-26T04:41:50.694Z,0
2016-12-26T04:43:01.385Z,0
2016-12-26T04:44:12.105Z,0
2016-12-26T04:45:22.823Z,0
2016-12-26T04:46:33.573Z,0
2016-12-26T04:47:44.294Z,0
2016-12-26T04:48:55.044Z,0
2016-12-26T04:50:05.789Z,0
2016-12-26T04:51:16.510Z,0
2016-12-26T04:52:27.254Z,0
2016-12-26T04:53:37.992Z,0
2016-12-26T04:54:48.713Z,0
2016-12-26T04:55:59.748Z,0
2016-12-26T04:57:10.480Z,0
2016-12-26T04:58:21.208Z,0
2016-12-26T04:59:31.929Z,0
2016-12-26T05:00:42.654Z,0
2016-12-26T05:01:53.376Z,0
2016-12-26T05:03:04.121Z,0
2016-12-26T05:04:14.893Z,0
2016-12-26T05:05:25.664Z,0
2016-12-26T05:06:36.410Z,0
2016-12-26T05:07:47.155Z,0
2016-12-26T05:08:57.891Z,0
2016-12-26T05:10:08.599Z,0
2016-12-26T05:11:19.315Z,0
2016-12-26T05:12:30.032Z,0
2016-12-26T05:13:40.766Z,0
2016-12-26T05:14:51.504Z,0
2016-12-26T05:16:02.205Z,0
2016-12-26T05:17:12.949Z,0
2016-12-26T05:18:23.671Z,0
2016-12-26T05:19:34.391Z,0
2016-12-26T05:20:45.136Z,0
2016-12-26T05:21:55.851Z,0
2016-12-26T05:23:06.579Z,0
2016-12-26T05:24:17.318Z,0
2016-12-26T05:25:28.047Z,0
2016-12-26T05:26:38.814Z,0
2016-12-26T05:27:49.514Z,0
2016-12-26T05:29:00.260Z,0
2016-12-26T05:30:11.005Z,0
2016-12-26T05:31:21.751Z,0
2016-12-26T05:32:32.498Z,0
2016-12-26T05:33:43.221Z,0
2016-12-26T05:34:53.956Z,0
2016-12-26T05:36:04.683Z,0
2016-12-26T05:37:15.403Z,0
2016-12-26T05:38:26.128Z,0
2016-12-26T05:39:36.871Z,0
2016-12-26T05:40:47.596Z,0
2016-12-26T05:41:58.343Z,0
2016-12-26T05:43:09.108Z,0
2016-12-26T05:44:19.833Z,0
2016-12-26T05:45:30.585Z,0
2016-12-26T05:46:41.298Z,0
2016-12-26T05:47:52.046Z,0
2016-12-26T05:49:02.767Z,0
2016-12-26T05:50:13.539Z,0
2016-12-26T05:51:24.262Z,0
2016-12-26T05:52:35.003Z,0
2016-12-26T05:53:45.770Z,0
2016-12-26T05:54:56.523Z,0
2016-12-26T05:56:07.290Z,0
2016-12-26T05:57:18.016Z,0
2016-12-26T05:58:28.760Z,0
2016-12-26T05:59:39.478Z,0
2016-12-26T06:00:50.199Z,0
2016-12-26T06:02:00.902Z,0
2016-12-26T06:03:11.645Z,0
2016-12-26T06:04:22.390Z,0
2016-12-26T06:05:33.133Z,0
2016-12-26T06:06:43.854Z,0
2016-12-26T06:07:54.579Z,0
2016-12-26T06:09:05.301Z,0
2016-12-26T06:10:16.062Z,0
2016-12-26T06:11:26.791Z,0
2016-12-26T06:12:37.555Z,0
2016-12-26T06:13:48.285Z,0
2016-12-26T06:14:59.030Z,0
2016-12-26T06:16:10.048Z,0
2016-12-26T06:17:20.768Z,0
2016-12-26T06:18:31.494Z,0
2016-12-26T06:19:42.238Z,0
2016-12-26T06:20:52.981Z,0
2016-12-26T06:22:03.702Z,0
2016-12-26T06:23:14.423Z,0
2016-12-26T06:24:25.190Z,0
2016-12-26T06:25:35.921Z,0
2016-12-26T06:26:46.633Z,0
2016-12-26T06:27:57.407Z,0
2016-12-26T06:29:08.132Z,0
2016-12-26T06:30:18.896Z,0
2016-12-26T06:31:29.642Z,0
2016-12-26T06:32:40.367Z,0
2016-12-26T06:33:51.090Z,0
2016-12-26T06:35:01.837Z,0
2016-12-26T06:36:12.582Z,0
2016-12-26T06:37:23.307Z,0
2016-12-26T06:38:34.046Z,0
2016-12-26T06:39:44.761Z,4
2016-12-26T06:40:55.490Z,4
2016-12-26T06:42:06.238Z,4
2016-12-26T06:43:16.980Z,0
2016-12-26T06:44:27.702Z,4
2016-12-26T06:45:38.472Z,4
2016-12-26T06:46:49.193Z,4
2016-12-26T06:47:59.892Z,4
2016-12-26T06:49:10.631Z,4
2016-12-26T06:50:21.660Z,4
2016-12-26T06:51:32.386Z,8
2016-12-26T06:52:43.127Z,8
2016-12-26T06:53:53.869Z,8
2016-12-26T06:55:04.619Z,12
2016-12-26T06:56:15.361Z,16
2016-12-26T06:57:26.082Z,24
2016-12-26T06:58:36.807Z,24
2016-12-26T06:59:47.552Z,20
2016-12-26T07:00:58.299Z,28
2016-12-26T07:02:09.065Z,32
2016-12-26T07:03:19.786Z,32
2016-12-26T07:04:30.551Z,36
2016-12-26T07:05:41.285Z,32
2016-12-26T07:06:52.001Z,44
2016-12-26T07:08:02.752Z,64
2016-12-26T07:09:13.496Z,72
2016-12-26T07:10:24.243Z,100
2016-12-26T07:11:34.984Z,92
2016-12-26T07:12:45.708Z,104
2016-12-26T07:13:56.429Z,112
2016-12-26T07:15:07.196Z,148
2016-12-26T07:16:17.892Z,132
2016-12-26T07:17:28.635Z,168
2016-12-26T07:18:39.359Z,172
2016-12-26T07:19:50.383Z,160
2016-12-26T07:21:01.101Z,152
2016-12-26T07:22:12.127Z,152
2016-12-26T07:23:22.869Z,160
2016-12-26T07:24:33.614Z,160
2016-12-26T07:25:44.335Z,164
2016-12-26T07:26:55.059Z,192
2016-12-26T07:28:05.781Z,200
2016-12-26T07:29:16.524Z,184
2016-12-26T07:30:27.294Z,188
2016-12-26T07:31:38.020Z,188
2016-12-26T07:32:48.732Z,188
2016-12-26T07:33:59.449Z,244
2016-12-26T07:35:10.482Z,240
2016-12-26T07:36:21.202Z,244
2016-12-26T07:37:31.942Z,200
2016-12-26T07:38:42.968Z,216
2016-12-26T07:39:53.710Z,264
2016-12-26T07:41:04.435Z,272
2016-12-26T07:42:15.453Z,304
2016-12-26T07:43:26.182Z,352
2016-12-26T07:44:36.925Z,304
2016-12-26T07:45:47.671Z,360
2016-12-26T07:46:58.391Z,432
2016-12-26T07:48:09.134Z,516
2016-12-26T07:49:19.859Z,536
2016-12-26T07:50:30.576Z,592
2016-12-26T07:51:41.299Z,644
2016-12-26T07:52:52.021Z,700
2016-12-26T07:54:02.767Z,672
2016-12-26T07:55:13.563Z,700
2016-12-26T07:56:24.301Z,696
2016-12-26T07:57:35.007Z,692
2016-12-26T07:58:45.722Z,696
2016-12-26T07:59:56.461Z,676
2016-12-26T08:01:07.215Z,772
2016-12-26T08:02:17.964Z,772
2016-12-26T08:03:28.987Z,708
2016-12-26T08:04:39.731Z,728
2016-12-26T08:05:50.448Z,700
2016-12-26T08:07:01.172Z,784
2016-12-26T08:08:11.894Z,752
2016-12-26T08:09:22.638Z,888
2016-12-26T08:10:33.363Z,908
2016-12-26T08:11:44.085Z,1012
2016-12-26T08:12:54.827Z,900
2016-12-26T08:14:05.545Z,1140
2016-12-26T08:15:16.300Z,1784
2016-12-26T08:16:27.037Z,1644
2016-12-26T08:17:37.758Z,1524
2016-12-26T08:18:48.480Z,1608
2016-12-26T08:19:59.204Z,1612
2016-12-26T08:21:09.930Z,1652
2016-12-26T08:22:20.646Z,1664
2016-12-26T08:23:31.363Z,1448
2016-12-26T08:24:42.413Z,1208
2016-12-26T08:25:53.155Z,1512
2016-12-26T08:27:03.901Z,2036
2016-12-26T08:28:14.628Z,2124
2016-12-26T08:29:25.372Z,1880
2016-12-26T08:30:36.118Z,1904
2016-12-26T08:31:46.864Z,1700
2016-12-26T08:32:57.611Z,1628
2016-12-26T08:34:08.378Z,2048
2016-12-26T08:35:19.101Z,1956
2016-12-26T08:36:29.844Z,2056
2016-12-26T08:37:40.869Z,1812
2016-12-26T08:38:51.932Z,2056
2016-12-26T08:40:02.678Z,1864
2016-12-26T08:41:13.403Z,1892
2016-12-26T08:42:24.155Z,1980
2016-12-26T08:43:34.899Z,2176
2016-12-26T08:44:45.621Z,3560
2016-12-26T08:45:56.366Z,3600
2016-12-26T08:47:07.429Z,3768
2016-12-26T08:48:18.188Z,2636
2016-12-26T08:49:28.941Z,2336
2016-12-26T08:50:39.671Z,1912
2016-12-26T08:51:50.396Z,1836
2016-12-26T08:53:01.158Z,2224
2016-12-26T08:54:11.894Z,2388
2016-12-26T08:55:22.633Z,2240
2016-12-26T08:56:33.355Z,2004
2016-12-26T08:57:44.090Z,2876
2016-12-26T08:58:54.823Z,3216
2016-12-26T09:00:05.564Z,3868
2016-12-26T09:01:16.291Z,4020
2016-12-26T09:02:27.051Z,3768
2016-12-26T09:03:37.781Z,3468
2016-12-26T09:04:48.527Z,4300
2016-12-26T09:05:59.248Z,3700
2016-12-26T09:07:10.010Z,3208
2016-12-26T09:08:20.765Z,2996
2016-12-26T09:09:31.510Z,2940
2016-12-26T09:10:42.256Z,3476
2016-12-26T09:11:53.027Z,4312
2016-12-26T09:13:03.770Z,3500
2016-12-26T09:14:14.490Z,3068
2016-12-26T09:15:25.240Z,3240
2016-12-26T09:16:35.937Z,2588
2016-12-26T09:17:46.685Z,2652
2016-12-26T09:18:57.429Z,2816
2016-12-26T09:20:08.150Z,2548
2016-12-26T09:21:18.888Z,2900
2016-12-26T09:22:29.617Z,4368
2016-12-26T09:23:40.355Z,6212
2016-12-26T09:24:51.084Z,7612
2016-12-26T09:26:01.804Z,8992
2016-12-26T09:27:12.550Z,8096
2016-12-26T09:28:23.588Z,7328
2016-12-26T09:29:34.318Z,7808
2016-12-26T09:30:45.040Z,8352
2016-12-26T09:31:55.760Z,9056
2016-12-26T09:33:06.506Z,9192
2016-12-26T09:34:17.555Z,8828
2016-12-26T09:35:28.294Z,7448
2016-12-26T09:36:38.992Z,5744
2016-12-26T09:37:49.737Z,5436
2016-12-26T09:39:00.482Z,4644
2016-12-26T09:40:11.220Z,3856
2016-12-26T09:41:21.949Z,4480
2016-12-26T09:42:32.679Z,5124
2016-12-26T09:43:43.420Z,5300
2016-12-26T09:44:54.165Z,5376
2016-12-26T09:46:04.908Z,3116
2016-12-26T09:47:15.671Z,4628
2016-12-26T09:48:26.383Z,5648
2016-12-26T09:49:37.123Z,4356
2016-12-26T09:50:47.848Z,3020
2016-12-26T09:51:58.580Z,2500
2016-12-26T09:53:09.333Z,1992
2016-12-26T09:54:20.400Z,2128
2016-12-26T09:55:31.110Z,2608
2016-12-26T09:56:41.839Z,3524
2016-12-26T09:57:52.598Z,3048
2016-12-26T09:59:03.684Z,3232
2016-12-26T10:00:14.414Z,4500
2016-12-26T10:01:25.158Z,4204
2016-12-26T10:02:35.904Z,3112
2016-12-26T10:03:46.673Z,3756
2016-12-26T10:04:57.399Z,3776
2016-12-26T10:06:08.094Z,3472
2016-12-26T10:07:18.907Z,2880
2016-12-26T10:08:29.635Z,2428
2016-12-26T10:09:40.384Z,2360
2016-12-26T10:10:51.126Z,3412
2016-12-26T10:12:01.865Z,4380
2016-12-26T10:13:12.572Z,5064
2016-12-26T10:14:23.292Z,4276
2016-12-26T10:15:34.040Z,3252
2016-12-26T10:16:44.755Z,3820
2016-12-26T10:17:55.457Z,5892
2016-12-26T10:19:06.195Z,4776
2016-12-26T10:20:16.938Z,4560
2016-12-26T10:21:27.688Z,4380
2016-12-26T10:22:38.434Z,3728
2016-12-26T10:23:49.155Z,3768
2016-12-26T10:24:59.875Z,3836
2016-12-26T10:26:10.597Z,4240
2016-12-26T10:27:21.317Z,3396
2016-12-26T10:28:32.064Z,3360
2016-12-26T10:29:42.792Z,2620
2016-12-26T10:30:53.537Z,3112
2016-12-26T10:32:04.276Z,2816
2016-12-26T10:33:14.989Z,3828
2016-12-26T10:34:25.769Z,5132
2016-12-26T10:35:36.468Z,4684
2016-12-26T10:36:47.165Z,4748
2016-12-26T10:37:57.911Z,4608
2016-12-26T10:39:08.998Z,4772
2016-12-26T10:40:19.733Z,6044
2016-12-26T10:41:30.473Z,6412
2016-12-26T10:42:41.240Z,5076
2016-12-26T10:43:51.980Z,4328
2016-12-26T10:45:02.711Z,5280
2016-12-26T10:46:13.458Z,4896
2016-12-26T10:47:24.209Z,3744
2016-12-26T10:48:34.951Z,2384
2016-12-26T10:49:45.695Z,2388
2016-12-26T10:50:56.458Z,2628
2016-12-26T10:52:07.184Z,4556
2016-12-26T10:53:17.908Z,6220
2016-12-26T10:54:28.657Z,7520
2016-12-26T10:55:39.402Z,8724
2016-12-26T10:56:50.146Z,6784
2016-12-26T10:58:00.842Z,6076
2016-12-26T10:59:11.560Z,5068
2016-12-26T11:00:22.605Z,5032
2016-12-26T11:01:33.344Z,3804
2016-12-26T11:02:44.076Z,5016
2016-12-26T11:03:54.818Z,5656
2016-12-26T11:05:05.550Z,4552
2016-12-26T11:06:16.290Z,4768
2016-12-26T11:07:27.013Z,4824
2016-12-26T11:08:37.757Z,5224
2016-12-26T11:09:48.503Z,4464
2016-12-26T11:10:59.246Z,3332
2016-12-26T11:12:10.287Z,2876
2016-12-26T11:13:21.014Z,3396
2016-12-26T11:14:31.757Z,3296
2016-12-26T11:15:42.485Z,2716
2016-12-26T11:16:53.199Z,2668
2016-12-26T11:18:03.925Z,3508
2016-12-26T11:19:14.668Z,3584
2016-12-26T11:20:25.413Z,3732
2016-12-26T11:21:36.161Z,3392
2016-12-26T11:22:46.905Z,3008
2016-12-26T11:23:57.625Z,3852
2016-12-26T11:25:08.327Z,4832
2016-12-26T11:26:19.068Z,4476
2016-12-26T11:27:29.817Z,4272
2016-12-26T11:28:40.589Z,3648
2016-12-26T11:29:51.335Z,3812
2016-12-26T11:31:02.060Z,3468
2016-12-26T11:32:12.823Z,4276
2016-12-26T11:33:23.519Z,4240
2016-12-26T11:34:34.232Z,4748
2016-12-26T11:35:44.938Z,4488
2016-12-26T11:36:55.675Z,3636
2016-12-26T11:38:06.399Z,3616
2016-12-26T11:39:17.129Z,4124
2016-12-26T11:40:27.915Z,3748
2016-12-26T11:41:38.633Z,2080
2016-12-26T11:42:49.354Z,1692
2016-12-26T11:44:00.083Z,2012
2016-12-26T11:45:11.133Z,2544
2016-12-26T11:46:21.879Z,2620
2016-12-26T11:47:32.642Z,2868
2016-12-26T11:48:43.341Z,1324
2016-12-26T11:49:54.067Z,1332
2016-12-26T11:51:04.815Z,1780
2016-12-26T11:52:15.558Z,1532
2016-12-26T11:53:26.301Z,1192
2016-12-26T11:54:37.024Z,1980
2016-12-26T11:55:47.772Z,3024
2016-12-26T11:56:58.514Z,3912
2016-12-26T11:58:09.239Z,4244
2016-12-26T11:59:19.981Z,4752
2016-12-26T12:00:30.701Z,5148
2016-12-26T12:01:41.427Z,5384
2016-12-26T12:02:52.146Z,4588
2016-12-26T12:04:02.890Z,3616
2016-12-26T12:05:13.615Z,2688
2016-12-26T12:06:24.374Z,2408
2016-12-26T12:07:35.107Z,2312
2016-12-26T12:08:45.824Z,2024
2016-12-26T12:09:56.545Z,1992
2016-12-26T12:11:07.566Z,2200
2016-12-26T12:12:18.314Z,1796
2016-12-26T12:13:29.057Z,1832
2016-12-26T12:14:39.780Z,1920
2016-12-26T12:15:50.504Z,2484
2016-12-26T12:17:01.246Z,3016
2016-12-26T12:18:11.984Z,3424
2016-12-26T12:19:22.689Z,3280
2016-12-26T12:20:33.442Z,2128
2016-12-26T12:21:44.184Z,1772
2016-12-26T12:22:54.927Z,1256
2016-12-26T12:24:05.668Z,1916
2016-12-26T12:25:16.373Z,2168
2016-12-26T12:26:27.113Z,2344
2016-12-26T12:27:37.838Z,3064
2016-12-26T12:28:48.573Z,4128
2016-12-26T12:29:59.277Z,5052
2016-12-26T12:31:10.023Z,4828
2016-12-26T12:32:20.764Z,4232
2016-12-26T12:33:31.494Z,3800
2016-12-26T12:34:42.239Z,3424
2016-12-26T12:35:52.982Z,2868
2016-12-26T12:37:03.695Z,2580
2016-12-26T12:38:14.429Z,2564
2016-12-26T12:39:25.170Z,2560
2016-12-26T12:40:35.891Z,2476
2016-12-26T12:41:46.615Z,2596
2016-12-26T12:42:57.387Z,3040
2016-12-26T12:44:08.149Z,3460
2016-12-26T12:45:19.179Z,4000
2016-12-26T12:46:29.892Z,4148
2016-12-26T12:47:40.617Z,3712
2016-12-26T12:48:51.337Z,3416
2016-12-26T12:50:02.063Z,3300
2016-12-26T12:51:12.805Z,3032
2016-12-26T12:52:23.526Z,2768
2016-12-26T12:53:34.221Z,2708
2016-12-26T12:54:44.943Z,2364
2016-12-26T12:55:55.663Z,2140
2016-12-26T12:57:06.389Z,2224
2016-12-26T12:58:17.134Z,2572
2016-12-26T12:59:27.872Z,2988
2016-12-26T13:00:38.598Z,3348
2016-12-26T13:01:49.315Z,3224
2016-12-26T13:03:00.064Z,2844
2016-12-26T13:04:10.789Z,2500
2016-12-26T13:05:21.533Z,2656
2016-12-26T13:06:32.257Z,2964
2016-12-26T13:07:43.003Z,3104
2016-12-26T13:08:53.723Z,3148
2016-12-26T13:10:04.469Z,2864
2016-12-26T13:11:15.211Z,2948
2016-12-26T13:12:25.957Z,3224
2016-12-26T13:13:36.656Z,2956
2016-12-26T13:14:47.377Z,2168
2016-12-26T13:15:58.127Z,2012
2016-12-26T13:17:08.884Z,2496
2016-12-26T13:18:19.613Z,3248
2016-12-26T13:19:30.325Z,3508
2016-12-26T13:20:41.054Z,3688
2016-12-26T13:21:51.780Z,4028
2016-12-26T13:23:02.522Z,3728
2016-12-26T13:24:13.243Z,3052
2016-12-26T13:25:23.992Z,2660
2016-12-26T13:26:34.738Z,2268
2016-12-26T13:27:45.484Z,1840
2016-12-26T13:28:56.230Z,1668
2016-12-26T13:30:06.947Z,1580
2016-12-26T13:31:17.672Z,1452
2016-12-26T13:32:28.418Z,1316
2016-12-26T13:33:39.139Z,1328
2016-12-26T13:34:49.922Z,1384
2016-12-26T13:36:00.657Z,1296
2016-12-26T13:37:11.379Z,1320
2016-12-26T13:38:22.122Z,1448
2016-12-26T13:39:32.819Z,1268
2016-12-26T13:40:43.554Z,1100
2016-12-26T13:41:54.283Z,1216
2016-12-26T13:43:05.279Z,1472
2016-12-26T13:44:15.992Z,1700
2016-12-26T13:45:26.720Z,1616
2016-12-26T13:46:37.438Z,1676
2016-12-26T13:47:48.171Z,1988
2016-12-26T13:48:58.915Z,1828
2016-12-26T13:50:09.663Z,1476
2016-12-26T13:51:20.401Z,1336
2016-12-26T13:52:31.100Z,1560
2016-12-26T13:53:41.847Z,1988
2016-12-26T13:54:52.566Z,2924
2016-12-26T13:56:03.308Z,3908
2016-12-26T13:57:14.333Z,2700
2016-12-26T13:58:25.044Z,1872
2016-12-26T13:59:35.772Z,1636
2016-12-26T14:00:46.496Z,1892
2016-12-26T14:01:57.245Z,2328
2016-12-26T14:03:07.994Z,2860
2016-12-26T14:04:18.734Z,3088
2016-12-26T14:05:29.485Z,3088
2016-12-26T14:06:40.198Z,2328
2016-12-26T14:07:50.923Z,1760
2016-12-26T14:09:01.645Z,1760
2016-12-26T14:10:12.387Z,1760
2016-12-26T14:11:23.411Z,1692
2016-12-26T14:12:34.157Z,1632
2016-12-26T14:13:44.898Z,1912
2016-12-26T14:14:55.621Z,1716
2016-12-26T14:16:06.368Z,1848
2016-12-26T14:17:17.090Z,2000
2016-12-26T14:18:27.837Z,1516
2016-12-26T14:19:38.578Z,1364
2016-12-26T14:20:49.274Z,1280
2016-12-26T14:22:00.048Z,1224
2016-12-26T14:23:10.783Z,1344
2016-12-26T14:24:21.496Z,1348
2016-12-26T14:25:32.232Z,1308
2016-12-26T14:26:42.948Z,1172
2016-12-26T14:27:53.678Z,1776
2016-12-26T14:29:04.395Z,1472
2016-12-26T14:30:15.161Z,1116
2016-12-26T14:31:25.887Z,1004
2016-12-26T14:32:36.600Z,960
2016-12-26T14:33:47.306Z,924
2016-12-26T14:34:58.041Z,892
2016-12-26T14:36:08.774Z,864
2016-12-26T14:37:19.499Z,844
2016-12-26T14:38:30.241Z,828
2016-12-26T14:39:40.988Z,776
2016-12-26T14:40:51.728Z,744
2016-12-26T14:42:02.449Z,724
2016-12-26T14:43:13.178Z,704
2016-12-26T14:44:23.920Z,668
2016-12-26T14:45:34.661Z,624
2016-12-26T14:46:45.385Z,592
2016-12-26T14:47:56.103Z,560
2016-12-26T14:49:06.823Z,532
2016-12-26T14:50:17.551Z,500
2016-12-26T14:51:28.295Z,468
2016-12-26T14:52:39.040Z,444
2016-12-26T14:53:49.760Z,416
2016-12-26T14:55:00.505Z,388
2016-12-26T14:56:11.254Z,360
2016-12-26T14:57:21.969Z,336
2016-12-26T14:58:32.694Z,312
2016-12-26T14:59:43.411Z,284
2016-12-26T15:00:54.136Z,260
2016-12-26T15:02:04.881Z,236
2016-12-26T15:03:15.605Z,216
2016-12-26T15:04:26.349Z,192
2016-12-26T15:05:37.065Z,176
2016-12-26T15:06:47.791Z,160
2016-12-26T15:07:58.532Z,136
2016-12-26T15:09:09.258Z,120
2016-12-26T15:10:19.974Z,112
2016-12-26T15:11:30.700Z,96
2016-12-26T15:12:41.421Z,84
2016-12-26T15:13:52.144Z,72
2016-12-26T15:15:02.885Z,60
2016-12-26T15:16:13.603Z,52
2016-12-26T15:17:24.303Z,40
2016-12-26T15:18:35.070Z,36
2016-12-26T15:19:45.800Z,32
2016-12-26T15:20:56.541Z,28
2016-12-26T15:22:07.286Z,24
2016-12-26T15:23:18.008Z,20
2016-12-26T15:24:28.735Z,12
2016-12-26T15:25:39.452Z,12
2016-12-26T15:26:50.201Z,8
2016-12-26T15:28:01.234Z,8
2016-12-26T15:29:11.962Z,8
2016-12-26T15:30:22.683Z,8
2016-12-26T15:31:33.429Z,4
2016-12-26T15:32:44.167Z,4
2016-12-26T15:33:54.895Z,4
2016-12-26T15:35:05.613Z,4
2016-12-26T15:36:16.318Z,0
2016-12-26T15:37:27.030Z,0
2016-12-26T15:38:37.751Z,4
2016-12-26T15:39:48.469Z,4
2016-12-26T15:40:59.197Z,0
2016-12-26T15:42:09.943Z,0
2016-12-26T15:43:20.687Z,0
2016-12-26T15:44:31.460Z,0
2016-12-26T15:45:42.205Z,0
2016-12-26T15:46:52.922Z,0
2016-12-26T15:48:03.980Z,0
2016-12-26T15:49:14.734Z,0
2016-12-26T15:50:25.762Z,0
2016-12-26T15:51:36.485Z,0
2016-12-26T15:52:47.223Z,0
2016-12-26T15:53:57.948Z,0
2016-12-26T15:55:08.647Z,0
2016-12-26T15:56:19.382Z,0
2016-12-26T15:57:30.115Z,0
2016-12-26T15:58:40.833Z,0
2016-12-26T15:59:51.578Z,0
2016-12-26T16:01:02.299Z,0
2016-12-26T16:02:13.040Z,0
2016-12-26T16:03:23.794Z,0
2016-12-26T16:04:34.541Z,0
2016-12-26T16:05:45.316Z,0
2016-12-26T16:06:56.028Z,0
2016-12-26T16:08:07.079Z,0
2016-12-26T16:09:17.803Z,0
2016-12-26T16:10:28.537Z,0
2016-12-26T16:11:39.283Z,0
2016-12-26T16:12:50.008Z,0
2016-12-26T16:14:00.729Z,0
2016-12-26T16:15:11.428Z,0
2016-12-26T16:16:22.149Z,0
2016-12-26T16:17:32.859Z,0
2016-12-26T16:18:43.562Z,0
2016-12-26T16:19:54.283Z,0
2016-12-26T16:21:05.008Z,0
2016-12-26T16:22:15.729Z,0
2016-12-26T16:23:26.451Z,0
2016-12-26T16:24:37.185Z,0
2016-12-26T16:25:47.916Z,0
2016-12-26T16:26:58.654Z,0
2016-12-26T16:28:09.357Z,0
2016-12-26T16:29:20.060Z,0
2016-12-26T16:30:30.776Z,0
2016-12-26T16:31:41.493Z,0
2016-12-26T16:32:52.193Z,0
2016-12-26T16:34:02.938Z,0
2016-12-26T16:35:13.656Z,0